Terminal Aerodrome Forecast
Issued by NWS

Home | Current Version | Previous Version | Text Only | Print | Product List | Glossary On
Versions: 1 2 3 4 5 6 7 8 9 10 11 12 13 14 15 16 17 18 19 20 21 22 23 24 25 26 27 28 29 30 31 32 33 34 35 36
000
FTUS43 KLOT 290500
TAFORD
TAF
KORD 290521Z 2906/3012 17013G21KT P6SM VCSH OVC080
      TEMPO 2906/2907 -RA
     FM290730 16011KT P6SM BKN100
     FM291200 35010KT 5SM -DZ BR OVC012
     FM291400 32015G24KT 5SM -RASN OVC008
     FM291600 33018G31KT P6SM OVC012
     FM300100 33017G24KT P6SM BKN025
     FM300500 32015G22KT P6SM SCT025=

USA.gov is the U.S. government's official web portal to all federal, state and local government web resources and services.